createdAt,value
2022-12-18T00:00:31.398Z,16.65
2022-12-18T00:03:00.829Z,13.93
2022-12-18T00:05:30.307Z,14.40
2022-12-18T00:07:59.490Z,14.32
2022-12-18T00:10:28.722Z,14.82
2022-12-18T00:12:57.957Z,14.30
2022-12-18T00:15:27.234Z,12.07
2022-12-18T00:17:56.474Z,12.63
2022-12-18T00:20:26.714Z,14.38
2022-12-18T00:22:56.367Z,16.13
2022-12-18T00:25:26.063Z,13.88
2022-12-18T00:27:55.322Z,13.95
2022-12-18T00:30:24.605Z,13.45
2022-12-18T00:32:54.042Z,13.10
2022-12-18T00:35:23.388Z,15.65
2022-12-18T00:37:52.640Z,13.75
2022-12-18T00:40:21.899Z,13.82
2022-12-18T00:42:57.615Z,13.10
2022-12-18T00:45:32.768Z,12.70
2022-12-18T00:48:02.192Z,11.27
2022-12-18T00:50:31.395Z,11.40
2022-12-18T00:53:03.494Z,13.32
2022-12-18T00:55:32.781Z,11.32
2022-12-18T00:58:02.030Z,12.00
2022-12-18T01:00:31.272Z,11.93
2022-12-18T01:03:00.787Z,9.98
2022-12-18T01:05:30.100Z,10.82
2022-12-18T01:07:59.914Z,11.18
2022-12-18T01:10:29.159Z,11.05
2022-12-18T01:13:00.566Z,11.90
2022-12-18T01:15:29.886Z,10.35
2022-12-18T01:17:59.110Z,10.60
2022-12-18T01:20:29.980Z,9.75
2022-12-18T01:22:59.240Z,12.18
2022-12-18T01:25:29.934Z,10.80
2022-12-18T01:27:59.240Z,12.10
2022-12-18T01:30:28.640Z,11.98
2022-12-18T01:32:57.920Z,10.88
2022-12-18T01:35:27.986Z,9.70
2022-12-18T01:38:00.691Z,11.00
2022-12-18T01:40:31.296Z,10.27
2022-12-18T01:43:00.624Z,9.85
2022-12-18T01:45:35.136Z,9.90
2022-12-18T01:48:05.787Z,9.88
2022-12-18T01:50:40.625Z,10.20
2022-12-18T01:53:09.957Z,12.05
2022-12-18T01:55:42.588Z,9.85
2022-12-18T01:58:12.876Z,9.23
2022-12-18T02:00:42.500Z,11.10
2022-12-18T02:03:12.174Z,10.00
2022-12-18T02:05:49.337Z,9.40
2022-12-18T02:08:24.108Z,9.63
2022-12-18T02:11:03.955Z,9.32
2022-12-18T02:13:38.292Z,9.52
2022-12-18T02:16:07.953Z,9.60
2022-12-18T02:18:39.658Z,9.30
2022-12-18T02:21:17.004Z,9.27
2022-12-18T02:23:55.345Z,10.10
2022-12-18T02:26:30.076Z,9.25
2022-12-18T02:29:02.657Z,9.30
2022-12-18T02:31:35.307Z,9.15
2022-12-18T02:34:06.959Z,9.43
2022-12-18T02:36:42.031Z,8.60
2022-12-18T02:39:14.366Z,9.15
2022-12-18T02:41:52.580Z,9.43
2022-12-18T02:44:23.432Z,9.10
2022-12-18T02:46:53.977Z,8.85
2022-12-18T02:49:23.366Z,10.15
2022-12-18T02:51:52.875Z,10.07
2022-12-18T02:54:33.066Z,8.02
2022-12-18T02:57:05.047Z,8.32
2022-12-18T02:59:40.598Z,7.25
2022-12-18T03:02:10.365Z,8.73
2022-12-18T03:04:48.338Z,8.27
2022-12-18T03:07:22.453Z,8.43
2022-12-18T03:09:53.904Z,10.05
2022-12-18T03:12:35.786Z,7.80
2022-12-18T03:15:05.446Z,7.50
2022-12-18T03:17:36.115Z,7.05
2022-12-18T03:20:15.910Z,7.70
2022-12-18T03:22:46.691Z,6.03
2022-12-18T03:25:18.576Z,7.38
2022-12-18T03:27:51.257Z,9.37
2022-12-18T03:30:23.095Z,10.32
2022-12-18T03:33:00.098Z,6.72
2022-12-18T03:35:33.241Z,8.10
2022-12-18T03:40:53.474Z,7.43
2022-12-18T03:43:42.451Z,9.07
2022-12-18T03:46:19.402Z,5.90
2022-12-18T03:48:53.963Z,6.20
2022-12-18T03:51:30.038Z,10.45
2022-12-18T03:54:06.217Z,8.80
2022-12-18T03:56:42.818Z,7.78
2022-12-18T04:01:44.806Z,7.85
2022-12-18T04:04:16.591Z,7.70
2022-12-18T04:06:47.544Z,7.78
2022-12-18T04:09:18.024Z,6.85
2022-12-18T04:14:19.552Z,7.90
2022-12-18T04:16:53.182Z,7.05
2022-12-18T04:19:27.240Z,6.43
2022-12-18T04:21:57.182Z,8.32
2022-12-18T04:24:26.544Z,6.45
2022-12-18T04:27:06.696Z,7.35
2022-12-18T04:29:42.435Z,8.65
2022-12-18T04:32:12.055Z,7.70
2022-12-18T04:34:42.634Z,6.88
2022-12-18T04:37:12.282Z,6.82
2022-12-18T04:39:42.138Z,7.82
2022-12-18T04:42:18.554Z,8.43
2022-12-18T04:44:47.919Z,7.28
2022-12-18T04:47:17.133Z,8.10
2022-12-18T04:49:46.373Z,8.48
2022-12-18T04:52:15.888Z,8.70
2022-12-18T04:54:45.165Z,7.82
2022-12-18T04:57:14.583Z,6.63
2022-12-18T04:59:43.869Z,7.53
2022-12-18T05:02:13.196Z,9.68
2022-12-18T05:04:42.669Z,8.07
2022-12-18T05:07:11.915Z,8.23
2022-12-18T05:09:41.130Z,7.80
2022-12-18T05:12:11.011Z,7.90
2022-12-18T05:14:40.241Z,7.28
2022-12-18T05:17:09.526Z,9.38
2022-12-18T05:19:38.784Z,8.45
2022-12-18T05:22:08.036Z,8.32
2022-12-18T05:24:37.293Z,8.30
2022-12-18T05:27:06.501Z,8.30
2022-12-18T05:29:35.704Z,10.10
2022-12-18T05:32:04.965Z,10.15
2022-12-18T05:34:34.803Z,9.18
2022-12-18T05:37:04.029Z,8.98
2022-12-18T05:39:33.260Z,9.50
2022-12-18T05:42:02.509Z,8.05
2022-12-18T05:44:31.739Z,8.25
2022-12-18T05:47:01.020Z,8.60
2022-12-18T05:49:30.352Z,8.45
2022-12-18T05:51:59.612Z,9.35
2022-12-18T05:54:30.672Z,9.68
2022-12-18T05:56:59.898Z,8.10
2022-12-18T05:59:29.157Z,8.15
2022-12-18T06:01:58.626Z,7.68
2022-12-18T06:04:28.463Z,8.73
2022-12-18T06:06:57.730Z,8.93
2022-12-18T06:09:27.133Z,6.72
2022-12-18T06:11:56.368Z,8.32
2022-12-18T06:14:25.566Z,7.78
2022-12-18T06:16:55.066Z,8.15
2022-12-18T06:19:24.279Z,8.60
2022-12-18T06:21:54.173Z,7.45
2022-12-18T06:24:25.883Z,6.78
2022-12-18T06:26:55.403Z,8.82
2022-12-18T06:29:24.737Z,7.40
2022-12-18T06:31:53.981Z,8.25
2022-12-18T06:34:26.294Z,8.15
2022-12-18T06:36:55.474Z,7.43
2022-12-18T06:39:24.678Z,7.20
2022-12-18T06:41:54.008Z,7.03
2022-12-18T06:44:23.374Z,7.85
2022-12-18T06:46:52.569Z,8.38
2022-12-18T06:49:24.124Z,8.57
2022-12-18T06:51:55.698Z,7.07
2022-12-18T06:54:25.050Z,7.93
2022-12-18T06:56:54.662Z,7.10
2022-12-18T06:59:23.902Z,8.20
2022-12-18T07:01:56.101Z,8.30
2022-12-18T07:04:25.397Z,8.23
2022-12-18T07:06:54.633Z,9.98
2022-12-18T07:09:24.655Z,7.78
2022-12-18T07:11:54.984Z,8.27
2022-12-18T07:14:25.049Z,7.82
2022-12-18T07:16:54.329Z,7.60
2022-12-18T07:19:27.113Z,8.75
2022-12-18T07:24:25.486Z,7.70
2022-12-18T07:26:54.785Z,8.65
2022-12-18T07:29:24.774Z,7.63
2022-12-18T07:31:54.043Z,8.40
2022-12-18T07:34:23.350Z,8.20
2022-12-18T07:36:52.584Z,8.52
2022-12-18T07:39:21.817Z,7.90
2022-12-18T07:42:11.159Z,8.18
2022-12-18T07:44:42.828Z,7.22
2022-12-18T07:47:12.470Z,8.30
2022-12-18T07:49:41.823Z,8.18
2022-12-18T07:52:13.348Z,7.38
2022-12-18T07:54:43.105Z,10.10
2022-12-18T07:57:33.759Z,8.80
2022-12-18T08:00:01.731Z,7.20
2022-12-18T08:02:42.277Z,8.30
2022-12-18T08:05:11.902Z,8.85
2022-12-18T08:07:41.320Z,7.88
2022-12-18T08:10:10.841Z,8.45
2022-12-18T08:12:40.063Z,9.02
2022-12-18T08:15:09.645Z,8.90
2022-12-18T08:17:38.914Z,7.82
2022-12-18T08:20:08.288Z,7.68
2022-12-18T08:22:42.752Z,7.82
2022-12-18T08:25:12.327Z,6.97
2022-12-18T08:27:41.537Z,9.23
2022-12-18T08:30:11.048Z,7.35
2022-12-18T08:32:40.327Z,7.80
2022-12-18T08:35:09.758Z,8.25
2022-12-18T08:37:39.172Z,8.52
2022-12-18T08:40:08.752Z,9.02
2022-12-18T08:42:50.561Z,7.40
2022-12-18T08:45:19.814Z,7.88
2022-12-18T08:47:49.035Z,6.80
2022-12-18T08:50:21.408Z,8.88
2022-12-18T08:52:50.774Z,8.68
2022-12-18T08:55:20.073Z,7.53
2022-12-18T08:57:53.695Z,7.57
2022-12-18T09:00:25.664Z,7.80
2022-12-18T09:02:55.231Z,7.47
2022-12-18T09:05:24.734Z,6.95
2022-12-18T09:07:54.637Z,8.52
2022-12-18T09:10:23.995Z,7.72
2022-12-18T09:12:57.159Z,7.80
2022-12-18T09:15:26.363Z,8.30
2022-12-18T09:17:55.589Z,7.25
2022-12-18T09:20:25.541Z,8.50
2022-12-18T09:22:54.898Z,7.30
2022-12-18T09:25:24.104Z,7.63
2022-12-18T09:27:54.420Z,7.43
2022-12-18T09:30:23.710Z,7.65
2022-12-18T09:32:53.038Z,7.45
2022-12-18T09:35:22.278Z,8.93
2022-12-18T09:37:51.496Z,8.48
2022-12-18T09:40:23.007Z,7.30
2022-12-18T09:42:55.819Z,8.63
2022-12-18T09:45:25.337Z,8.32
2022-12-18T09:47:56.230Z,8.43
2022-12-18T09:50:36.804Z,7.60
2022-12-18T09:53:10.219Z,8.30
2022-12-18T09:55:41.607Z,8.23
2022-12-18T09:58:11.614Z,7.30
2022-12-18T10:00:40.922Z,7.25
2022-12-18T10:03:14.662Z,8.98
2022-12-18T10:06:16.965Z,7.35
2022-12-18T10:09:03.942Z,8.73
2022-12-18T10:11:51.936Z,8.32
2022-12-18T10:14:40.225Z,8.40
2022-12-18T10:17:10.424Z,7.95
2022-12-18T10:19:42.598Z,8.13
2022-12-18T10:22:17.549Z,7.85
2022-12-18T10:25:05.632Z,8.57
2022-12-18T10:27:36.199Z,8.30
2022-12-18T10:30:08.549Z,7.35
2022-12-18T10:32:37.768Z,8.63
2022-12-18T10:35:08.835Z,9.00
2022-12-18T10:37:38.074Z,8.10
2022-12-18T10:40:18.221Z,6.70
2022-12-18T10:42:51.555Z,7.72
2022-12-18T10:45:21.239Z,7.50
2022-12-18T10:47:51.680Z,7.97
2022-12-18T10:50:47.128Z,8.07
2022-12-18T10:53:24.071Z,7.45
2022-12-18T10:55:54.699Z,6.95
2022-12-18T10:58:32.531Z,8.98
2022-12-18T11:01:06.385Z,8.68
2022-12-18T11:03:37.846Z,7.38
2022-12-18T11:06:12.064Z,9.13
2022-12-18T11:08:42.683Z,8.30
2022-12-18T11:11:25.605Z,8.43
2022-12-18T11:16:24.901Z,7.95
2022-12-18T11:18:54.186Z,8.93
2022-12-18T11:21:23.845Z,8.02
2022-12-18T11:23:54.593Z,8.20
2022-12-18T11:26:24.230Z,8.25
2022-12-18T11:28:55.439Z,9.02
2022-12-18T11:31:29.335Z,7.32
2022-12-18T11:36:51.880Z,8.57
2022-12-18T11:39:23.465Z,7.30
2022-12-18T11:42:13.544Z,7.72
2022-12-18T11:44:46.196Z,8.35
2022-12-18T11:47:29.411Z,8.88
2022-12-18T11:49:59.748Z,8.05
2022-12-18T11:52:39.703Z,8.25
2022-12-18T11:55:16.166Z,8.27
2022-12-18T11:57:54.075Z,8.85
2022-12-18T12:00:24.243Z,9.38
2022-12-18T12:02:56.338Z,8.13
2022-12-18T12:05:25.572Z,8.00
2022-12-18T12:07:56.356Z,8.27
2022-12-18T12:10:44.430Z,9.32
2022-12-18T12:13:32.205Z,7.68
2022-12-18T12:16:10.368Z,7.72
2022-12-18T12:18:39.660Z,8.73
2022-12-18T12:21:24.344Z,8.85
2022-12-18T12:24:00.736Z,8.52
2022-12-18T12:26:49.034Z,9.15
2022-12-18T12:29:21.327Z,8.98
2022-12-18T12:32:07.199Z,8.38
2022-12-18T12:34:42.546Z,8.30
2022-12-18T12:37:32.042Z,8.88
2022-12-18T12:40:15.380Z,8.82
2022-12-18T12:43:07.469Z,9.23
2022-12-18T12:45:39.660Z,10.15
2022-12-18T12:48:11.012Z,8.70
2022-12-18T12:50:42.574Z,9.50
2022-12-18T12:53:15.281Z,8.95
2022-12-18T12:55:45.352Z,9.35
2022-12-18T12:58:26.980Z,8.98
2022-12-18T13:00:56.855Z,8.45
2022-12-18T13:03:43.676Z,9.13
2022-12-18T13:06:18.309Z,9.18
2022-12-18T13:09:00.984Z,7.78
2022-12-18T13:11:47.504Z,7.88
2022-12-18T13:14:24.187Z,9.15
2022-12-18T13:16:54.788Z,9.85
2022-12-18T13:19:31.645Z,9.27
2022-12-18T13:22:00.959Z,9.90
2022-12-18T13:24:31.813Z,8.85
2022-12-18T13:27:01.027Z,9.32
2022-12-18T13:29:46.905Z,9.77
2022-12-18T13:32:24.071Z,7.82
2022-12-18T13:35:32.703Z,8.93
2022-12-18T13:38:02.152Z,9.23
2022-12-18T13:40:43.334Z,8.23
2022-12-18T13:43:21.450Z,8.65
2022-12-18T13:46:02.810Z,9.02
2022-12-18T13:48:34.873Z,9.25
2022-12-18T13:51:04.543Z,9.13
2022-12-18T13:53:40.017Z,9.68
2022-12-18T13:56:09.750Z,8.43
2022-12-18T13:58:39.895Z,9.95
2022-12-18T14:01:19.897Z,9.57
2022-12-18T14:03:49.277Z,9.25
2022-12-18T14:06:20.388Z,9.38
2022-12-18T14:08:51.287Z,10.23
2022-12-18T14:11:23.586Z,9.27
2022-12-18T14:13:55.960Z,9.18
2022-12-18T14:16:25.686Z,9.25
2022-12-18T14:19:05.545Z,9.98
2022-12-18T14:21:48.982Z,10.30
2022-12-18T14:24:20.003Z,9.93
2022-12-18T14:26:50.449Z,9.60
2022-12-18T14:29:30.553Z,8.75
2022-12-18T14:32:14.905Z,9.88
2022-12-18T14:34:47.300Z,10.80
2022-12-18T14:37:17.542Z,9.60
2022-12-18T14:39:57.700Z,8.75
2022-12-18T14:42:29.277Z,9.88
2022-12-18T14:45:17.424Z,9.90
2022-12-18T14:47:47.093Z,10.52
2022-12-18T14:50:17.620Z,10.02
2022-12-18T14:52:47.123Z,9.25
2022-12-18T14:55:20.459Z,8.77
2022-12-18T14:57:52.468Z,10.63
2022-12-18T15:00:23.044Z,11.15
2022-12-18T15:02:54.784Z,9.05
2022-12-18T15:05:34.305Z,10.63
2022-12-18T15:08:04.140Z,10.00
2022-12-18T15:10:34.725Z,9.77
2022-12-18T15:13:04.512Z,10.82
2022-12-18T15:15:37.015Z,10.70
2022-12-18T15:18:12.754Z,10.70
2022-12-18T15:20:49.545Z,10.95
2022-12-18T15:23:26.119Z,10.68
2022-12-18T15:26:02.425Z,12.40
2022-12-18T15:28:41.693Z,14.07
2022-12-18T15:31:18.249Z,11.40
2022-12-18T15:33:53.895Z,12.60
2022-12-18T15:36:26.113Z,12.32
2022-12-18T15:39:04.660Z,11.50
2022-12-18T15:41:36.450Z,11.10
2022-12-18T15:44:03.858Z,13.32
2022-12-18T15:46:33.352Z,14.13
2022-12-18T15:49:03.140Z,10.57
2022-12-18T15:51:35.469Z,11.18
2022-12-18T15:54:05.723Z,12.13
2022-12-18T15:56:47.725Z,10.20
2022-12-18T15:59:19.594Z,11.15
2022-12-18T16:01:50.296Z,10.90
2022-12-18T16:04:21.575Z,11.18
2022-12-18T16:09:42.959Z,10.20
2022-12-18T16:12:19.133Z,13.10
2022-12-18T16:14:48.791Z,11.20
2022-12-18T16:17:18.783Z,11.32
2022-12-18T16:19:48.076Z,10.45
2022-12-18T16:22:35.490Z,11.95
2022-12-18T16:25:06.212Z,12.55
2022-12-18T16:27:35.443Z,11.73
2022-12-18T16:30:04.724Z,11.73
2022-12-18T16:32:34.018Z,10.75
2022-12-18T16:35:03.864Z,11.27
2022-12-18T16:37:33.293Z,10.73
2022-12-18T16:40:03.025Z,10.52
2022-12-18T16:42:32.248Z,11.85
2022-12-18T16:45:01.507Z,13.30
2022-12-18T16:47:30.699Z,11.27
2022-12-18T16:49:59.897Z,12.50
2022-12-18T16:52:30.326Z,11.65
2022-12-18T16:54:59.677Z,11.05
2022-12-18T16:57:28.962Z,13.10
2022-12-18T17:00:04.435Z,11.93
2022-12-18T17:02:34.922Z,14.68
2022-12-18T17:05:04.317Z,12.40
2022-12-18T17:07:33.568Z,13.00
2022-12-18T17:10:04.056Z,13.38
2022-12-18T17:12:34.039Z,13.38
2022-12-18T17:15:03.310Z,10.55
2022-12-18T17:17:32.636Z,13.13
2022-12-18T17:20:02.130Z,12.07
2022-12-18T17:22:31.346Z,12.48
2022-12-18T17:25:00.613Z,12.55
2022-12-18T17:27:29.824Z,12.05
2022-12-18T17:29:59.002Z,13.77
2022-12-18T17:32:28.185Z,12.52
2022-12-18T17:34:58.252Z,12.63
2022-12-18T17:37:29.747Z,11.48
2022-12-18T17:39:58.923Z,11.57
2022-12-18T17:42:29.394Z,12.48
2022-12-18T17:44:58.584Z,12.32
2022-12-18T17:47:27.949Z,12.45
2022-12-18T17:49:57.201Z,12.80
2022-12-18T17:52:26.624Z,12.35
2022-12-18T17:54:57.157Z,12.93
2022-12-18T17:57:26.405Z,11.82
2022-12-18T17:59:56.014Z,13.02
2022-12-18T18:02:25.492Z,14.43
2022-12-18T18:04:55.242Z,12.75
2022-12-18T18:07:24.468Z,13.45
2022-12-18T18:09:53.728Z,13.95
2022-12-18T18:12:35.473Z,13.07
2022-12-18T18:15:05.141Z,13.35
2022-12-18T18:17:34.918Z,12.65
2022-12-18T18:20:04.132Z,12.38
2022-12-18T18:22:33.400Z,13.45
2022-12-18T18:25:03.726Z,12.50
2022-12-18T18:27:38.935Z,13.18
2022-12-18T18:30:08.660Z,13.48
2022-12-18T18:32:40.202Z,13.57
2022-12-18T18:35:24.559Z,14.18
2022-12-18T18:38:00.526Z,11.45
2022-12-18T18:40:29.781Z,12.57
2022-12-18T18:42:59.216Z,12.63
2022-12-18T18:45:28.513Z,15.52
2022-12-18T18:47:58.955Z,15.23
2022-12-18T18:50:28.288Z,14.38
2022-12-18T18:52:57.580Z,13.70
2022-12-18T18:55:26.851Z,14.13
2022-12-18T18:57:56.950Z,13.95
2022-12-18T19:00:26.281Z,13.57
2022-12-18T19:05:36.519Z,12.98
2022-12-18T19:08:05.858Z,11.80
2022-12-18T19:10:35.067Z,14.40
2022-12-18T19:13:25.517Z,14.43
2022-12-18T19:15:56.184Z,12.98
2022-12-18T19:18:25.981Z,13.18
2022-12-18T19:21:03.240Z,13.63
2022-12-18T19:23:33.196Z,13.38
2022-12-18T19:26:27.056Z,12.52
2022-12-18T19:28:52.836Z,15.38
2022-12-18T19:31:26.190Z,14.68
2022-12-18T19:33:57.332Z,12.50
2022-12-18T19:36:27.983Z,13.20
2022-12-18T19:38:59.775Z,14.88
2022-12-18T19:41:31.334Z,14.27
2022-12-18T19:44:07.479Z,13.30
2022-12-18T19:46:38.329Z,13.88
2022-12-18T19:49:11.373Z,14.77
2022-12-18T19:51:45.560Z,14.10
2022-12-18T19:54:17.465Z,14.32
2022-12-18T19:56:47.301Z,13.88
2022-12-18T19:59:16.930Z,13.25
2022-12-18T20:01:46.258Z,14.23
2022-12-18T20:04:15.657Z,14.15
2022-12-18T20:06:52.686Z,14.02
2022-12-18T20:09:22.830Z,13.82
2022-12-18T20:11:55.941Z,16.15
2022-12-18T20:16:54.667Z,13.95
2022-12-18T20:19:24.601Z,14.45
2022-12-18T20:21:54.139Z,15.23
2022-12-18T20:24:23.453Z,14.23
2022-12-18T20:26:52.640Z,16.02
2022-12-18T20:29:21.874Z,15.48
2022-12-18T20:31:51.143Z,15.98
2022-12-18T20:34:22.135Z,15.50
2022-12-18T20:36:52.159Z,14.40
2022-12-18T20:39:21.716Z,14.98
2022-12-18T20:41:51.862Z,14.25
2022-12-18T20:44:23.861Z,16.85
2022-12-18T20:46:58.083Z,15.45
2022-12-18T20:49:28.111Z,15.65
2022-12-18T20:51:59.461Z,13.95
2022-12-18T20:54:29.344Z,14.95
2022-12-18T20:56:59.243Z,15.30
2022-12-18T20:59:28.530Z,15.38
2022-12-18T21:01:58.326Z,15.55
2022-12-18T21:04:28.069Z,16.63
2022-12-18T21:07:02.356Z,15.02
2022-12-18T21:09:37.436Z,17.40
2022-12-18T21:12:20.825Z,17.05
2022-12-18T21:14:50.035Z,15.50
2022-12-18T21:17:19.638Z,17.63
2022-12-18T21:19:48.876Z,16.67
2022-12-18T21:22:18.657Z,16.08
2022-12-18T21:24:48.241Z,18.15
2022-12-18T21:27:18.130Z,16.70
2022-12-18T21:29:47.740Z,17.90
2022-12-18T21:32:18.549Z,17.17
2022-12-18T21:34:48.718Z,15.88
2022-12-18T21:37:18.176Z,15.30
2022-12-18T21:39:49.525Z,16.15
2022-12-18T21:42:31.239Z,16.48
2022-12-18T21:45:00.594Z,18.65
2022-12-18T21:47:29.841Z,16.17
2022-12-18T21:49:59.070Z,17.95
2022-12-18T21:52:31.464Z,18.05
2022-12-18T21:55:08.509Z,17.30
2022-12-18T21:57:39.674Z,18.35
2022-12-18T22:00:10.029Z,18.08
2022-12-18T22:02:43.562Z,17.58
2022-12-18T22:05:12.947Z,18.05
2022-12-18T22:07:42.564Z,17.60
2022-12-18T22:10:12.013Z,20.88
2022-12-18T22:12:44.477Z,17.95
2022-12-18T22:15:21.041Z,18.98
2022-12-18T22:17:51.031Z,17.38
2022-12-18T22:20:21.036Z,18.05
2022-12-18T22:22:51.832Z,17.48
2022-12-18T22:25:21.461Z,19.13
2022-12-18T22:28:04.738Z,19.63
2022-12-18T22:30:33.973Z,18.20
2022-12-18T22:33:03.985Z,18.98
2022-12-18T22:35:33.271Z,19.20
2022-12-18T22:38:02.765Z,18.20
2022-12-18T22:40:32.044Z,18.02
2022-12-18T22:43:01.468Z,18.42
2022-12-18T22:45:30.768Z,20.20
2022-12-18T22:48:01.923Z,16.17
2022-12-18T22:50:33.781Z,18.55
2022-12-18T22:53:03.040Z,19.02
2022-12-18T22:55:32.303Z,19.90
2022-12-18T22:58:01.549Z,18.05
2022-12-18T23:00:30.788Z,18.00
2022-12-18T23:03:01.164Z,17.65
2022-12-18T23:05:31.563Z,19.67
2022-12-18T23:08:01.044Z,18.35
2022-12-18T23:10:30.406Z,18.48
2022-12-18T23:12:59.711Z,18.27
2022-12-18T23:15:28.954Z,18.65
2022-12-18T23:17:59.102Z,18.35
2022-12-18T23:20:29.637Z,17.92
2022-12-18T23:22:59.161Z,17.50
2022-12-18T23:25:28.780Z,19.05
2022-12-18T23:27:58.110Z,18.17
2022-12-18T23:30:27.437Z,17.20
2022-12-18T23:32:56.713Z,17.80
2022-12-18T23:35:26.085Z,19.65
2022-12-18T23:37:58.616Z,18.77
2022-12-18T23:40:29.437Z,18.17
2022-12-18T23:42:58.772Z,17.08
2022-12-18T23:45:28.019Z,18.08
2022-12-18T23:47:57.293Z,19.08
2022-12-18T23:50:29.875Z,18.35
2022-12-18T23:53:04.941Z,18.65
2022-12-18T23:55:35.273Z,17.35
2022-12-18T23:58:04.523Z,18.05
